Akron Canton Regional Airport
KCAK : now visible

Airfield :











YOU CAN JOIN US ON...

 
LOGIN :

Register | Disclaimer

   EN    FR    IT 

 









Legend :    VFR   Marginal VFR   IFR   Intensive IFR   Very Intensive IFR
Visi :
Ceiling :
>= 8 km
>= 3000ft
5 to 8 km
1000 to 3000 ft
1500m to 5 km
500 to 1000 ft
800 to 1500m
200 to 500 ft
< 800m
< 200 ft
Symbols :   Thunderstorms  Fog  Heavy snow  Heavy precipitations  Wind > 20 kt







- Airport Elevation : 1228 ft
- IATA code : CAK


KCAK - Akron Canton Regional

CURRENT METAR :
  • 162151Z 35009KT 10SM SCT050 28/18 A3004 RMK AO2 SLP165 T02830178

EXPIRED METARs :
  • 162051Z 36009KT 10SM FEW042 SCT060 29/18 A3004 RMK AO2 SLP163 T02890178 57008
  • 161951Z 02008KT 10SM SCT041 28/18 A3005 RMK AO2 SLP165 T02830183

TAF KCAK
Valid from the 16 at 18:00 until the 17 at 18:00 UTC


161720Z 1618/1718 01005KT P6SM SCT030 BKN090
TEMPO 1618/1621 BKN030
FM170300 04006KT P6SM SCT010 BKN030
FM171300 05010KT P6SM FEW010 SCT030
No reported NOTAMs for that airfield.



MET'MAP, your aeronautical weather chart ! - Copyright ORBIFLY December 2007 - Disclaimer

ORBIFLY MET'MAP TEAM :

Programming & Development : Alexandra Zaïnal
Concept & Development : Baudouin d'Aumeries
Co-Development & Prog : Marc-Olivier Méhu
Technical & hardware support : Manuel Goepfert

Contact : metmap@orbifly.com




SOURCES & CREDITS :

   NOAA       Earth
Advisory